Time;durP1;ratioP1;P1;durP2;ratioP2;P2;SDS_P1;SDS_P2;PMS_P1;PMS_P2;Temp;Humidity;BMP_temperature;BMP_pressure;BME280_temperature;BME280_humidity;BME280_pressure;Samples;Min_cycle;Max_cycle;Signal;HPM_P1;HPM_P2
2023/01/19 00:00:25;;;;;;;14.97;8.87;;;;;;;0.75;88.06;100037.44;5070095;28;20388;-77
2023/01/19 00:02:51;;;;;;;18.07;9.37;;;;;;;0.75;88.09;100037.44;5059230;28;20036;-77
2023/01/19 00:05:16;;;;;;;14.97;8.70;;;;;;;0.76;88.78;100030.66;5066796;28;20017;-77
2023/01/19 00:07:42;;;;;;;17.43;8.67;;;;;;;0.80;88.29;100034.88;5067463;28;20408;-77
2023/01/19 00:10:08;;;;;;;15.37;9.03;;;;;;;0.79;88.63;100040.03;5070581;28;20026;-77
2023/01/19 00:12:33;;;;;;;15.97;8.93;;;;;;;0.82;88.62;100045.16;5060951;28;20029;-77
2023/01/19 00:14:59;;;;;;;17.30;9.00;;;;;;;0.81;88.71;100036.59;5063982;28;20138;-77
2023/01/19 00:17:24;;;;;;;13.83;8.80;;;;;;;0.84;88.79;100039.16;5058431;28;20068;-77
2023/01/19 00:19:49;;;;;;;14.70;8.40;;;;;;;0.85;88.51;100033.19;5056429;28;20052;-77
2023/01/19 00:22:15;;;;;;;19.77;8.97;;;;;;;0.84;88.45;100031.50;5052500;28;20037;-77
2023/01/19 00:24:40;;;;;;;16.97;9.77;;;;;;;0.82;88.67;100042.59;5044446;28;20053;-77
2023/01/19 00:27:05;;;;;;;14.30;8.33;;;;;;;0.83;88.12;100041.75;5061795;28;20042;-77
2023/01/19 00:29:32;;;;;;;14.63;8.90;;;;;;;0.80;88.53;100044.28;5056505;28;20029;-77
2023/01/19 00:32:03;;;;;;;14.50;8.57;;;;;;;0.80;88.79;100041.72;5049309;28;20032;-77
2023/01/19 00:34:35;;;;;;;16.88;9.07;;;;;;;0.78;88.68;100040.88;5063644;28;20037;-77
2023/01/19 00:37:05;;;;;;;14.37;8.33;;;;;;;0.80;88.74;100054.53;5067403;28;20050;-77
2023/01/19 00:39:30;;;;;;;12.83;8.43;;;;;;;0.81;88.66;100056.25;5070793;28;20028;-77
2023/01/19 00:44:39;;;;;;;14.83;8.77;;;;;;;0.82;88.54;100053.69;5070091;28;20038;-77
2023/01/19 00:47:05;;;;;;;15.80;9.27;;;;;;;0.81;88.53;100058.81;5066465;28;20391;-77
2023/01/19 00:49:30;;;;;;;14.63;8.77;;;;;;;0.81;88.61;100056.25;5068739;28;20471;-77
2023/01/19 00:51:56;;;;;;;13.43;8.07;;;;;;;0.82;89.12;100057.97;5050283;28;20459;-77
2023/01/19 00:54:21;;;;;;;14.30;8.27;;;;;;;0.82;88.92;100050.28;5054549;28;20032;-77
2023/01/19 00:56:46;;;;;;;16.30;8.80;;;;;;;0.81;89.33;100040.88;5060551;28;20424;-77
2023/01/19 00:59:12;;;;;;;14.97;8.73;;;;;;;0.79;89.01;100043.41;5069869;28;20115;-77
2023/01/19 01:01:37;;;;;;;17.27;8.83;;;;;;;0.78;88.89;100036.59;5068140;28;20032;-77
2023/01/19 01:04:02;;;;;;;12.90;8.10;;;;;;;0.74;89.23;100030.63;5065570;28;20056;-77
2023/01/19 01:06:27;;;;;;;15.10;9.07;;;;;;;0.70;89.15;100031.47;5065906;28;20037;-77
2023/01/19 01:08:53;;;;;;;14.07;8.47;;;;;;;0.68;89.21;100030.63;5051348;28;20057;-77
2023/01/19 01:11:18;;;;;;;16.20;9.17;;;;;;;0.68;89.43;100038.31;5062766;28;20158;-78
2023/01/19 01:13:43;;;;;;;16.60;9.07;;;;;;;0.66;89.69;100037.44;5060914;28;20039;-77
2023/01/19 01:16:09;;;;;;;16.63;8.63;;;;;;;0.65;89.37;100040.00;5055492;28;20025;-77
2023/01/19 01:18:34;;;;;;;14.77;8.57;;;;;;;0.66;89.64;100041.69;5056643;28;20025;-77
2023/01/19 01:21:04;;;;;;;15.17;8.70;;;;;;;0.66;89.25;100042.56;5063707;28;20093;-77
2023/01/19 01:23:30;;;;;;;16.77;8.93;;;;;;;0.67;89.35;100041.72;5054314;28;20032;-77
2023/01/19 01:25:55;;;;;;;15.07;8.50;;;;;;;0.67;89.45;100049.41;5059396;28;20028;-77
2023/01/19 01:28:20;;;;;;;15.10;8.17;;;;;;;0.68;89.45;100048.56;5066402;28;20025;-77
2023/01/19 01:30:46;;;;;;;15.93;8.80;;;;;;;0.69;89.62;100050.22;5069688;28;20029;-77
2023/01/19 01:33:12;;;;;;;19.93;9.53;;;;;;;0.70;89.40;100054.50;5069234;28;20523;-76
2023/01/19 01:35:39;;;;;;;15.23;8.70;;;;;;;0.73;89.65;100058.78;5069137;28;20082;-77
2023/01/19 01:38:04;;;;;;;17.87;8.70;;;;;;;0.74;89.54;100051.09;5071798;28;20024;-77
2023/01/19 01:40:30;;;;;;;16.40;8.63;;;;;;;0.78;89.19;100054.50;5050953;28;20518;-77
2023/01/19 01:42:55;;;;;;;12.97;7.60;;;;;;;0.80;89.25;100049.41;5073475;28;20028;-77
2023/01/19 01:45:34;;;;;;;14.07;8.10;;;;;;;0.82;89.04;100038.31;5059843;28;20021;-77
2023/01/19 01:48:14;;;;;;;13.80;7.70;;;;;;;0.81;89.30;100041.72;5069714;28;20051;-77
2023/01/19 01:53:33;;;;;;;13.50;7.93;;;;;;;0.81;89.46;100051.13;5074580;28;20565;-77
2023/01/19 01:56:01;;;;;;;12.77;7.73;;;;;;;0.81;89.25;100046.00;5067546;28;20472;-77
2023/01/19 01:58:27;;;;;;;14.57;8.17;;;;;;;0.84;89.22;100053.69;5059948;28;20113;-77
2023/01/19 02:03:37;;;;;;;14.93;7.87;;;;;;;0.81;89.43;100048.56;5054425;28;20567;-78
2023/01/19 02:06:06;;;;;;;13.90;7.80;;;;;;;0.78;89.63;100049.41;5066666;28;20103;-78
2023/01/19 02:14:06;;;;;;;14.37;7.43;;;;;;;0.71;89.78;100055.38;5061910;28;20035;-79
2023/01/19 02:16:32;;;;;;;15.40;7.27;;;;;;;0.69;90.05;100057.91;5062878;28;20024;-78
2023/01/19 02:18:57;;;;;;;14.90;7.67;;;;;;;0.64;90.01;100059.63;5072567;28;20028;-79
2023/01/19 02:21:25;;;;;;;12.70;7.37;;;;;;;0.58;90.26;100065.59;5073531;28;20039;-78
2023/01/19 02:23:55;;;;;;;14.47;7.70;;;;;;;0.57;90.67;100065.56;5064666;28;20495;-78
2023/01/19 02:26:24;;;;;;;16.90;7.97;;;;;;;0.54;90.67;100063.88;5066080;28;20425;-79
2023/01/19 02:28:56;;;;;;;12.60;7.00;;;;;;;0.49;90.90;100059.59;5065084;28;20105;-79
2023/01/19 02:31:23;;;;;;;12.83;6.57;;;;;;;0.47;90.50;100058.72;5066663;28;20103;-78
2023/01/19 02:33:48;;;;;;;11.83;6.93;;;;;;;0.40;90.75;100065.53;5068299;28;20487;-79
2023/01/19 02:36:16;;;;;;;12.80;7.37;;;;;;;0.38;90.99;100067.22;5057613;28;20055;-79
2023/01/19 02:38:44;;;;;;;12.53;7.07;;;;;;;0.36;91.54;100074.88;5064127;28;20024;-78
2023/01/19 02:41:13;;;;;;;13.57;7.43;;;;;;;0.30;91.93;100069.75;5071129;28;20025;-79
2023/01/19 02:43:41;;;;;;;13.67;7.27;;;;;;;0.24;91.30;100073.16;5070522;28;20150;-78
2023/01/19 02:46:07;;;;;;;11.07;6.87;;;;;;;0.24;91.29;100083.38;5063876;28;20052;-79
2023/01/19 02:48:32;;;;;;;12.97;7.27;;;;;;;0.21;91.80;100072.25;5065772;28;20098;-78
2023/01/19 02:51:03;;;;;;;10.47;6.57;;;;;;;0.14;91.68;100077.38;5065133;28;20028;-79
2023/01/19 02:53:31;;;;;;;11.47;7.00;;;;;;;0.13;91.69;100080.78;5053742;28;20438;-78
2023/01/19 02:56:41;;;;;;;12.83;6.80;;;;;;;0.09;92.10;100073.94;5070205;28;20026;-78
2023/01/19 02:59:33;;;;;;;10.43;6.67;;;;;;;0.05;92.12;100077.31;5071814;28;20107;-79
2023/01/19 03:02:33;;;;;;;11.55;6.45;;;;;;;0.06;91.80;100088.41;5065914;28;20495;-79
2023/01/19 03:05:25;;;;;;;11.93;6.80;;;;;;;0.02;92.45;100084.13;5047131;28;20041;-79
2023/01/19 03:08:07;;;;;;;;;;;;;;;0.05;92.01;100095.22;5063729;28;20048;-79
2023/01/19 03:10:40;;;;;;;10.32;6.82;;;;;;;0.01;92.27;100095.19;5070456;28;19932;-78
2023/01/19 03:13:11;;;;;;;12.37;7.57;;;;;;;-0.01;92.20;100100.31;5058506;28;20044;-78
2023/01/19 03:15:47;;;;;;;13.73;7.53;;;;;;;-0.01;91.91;100105.44;5065617;28;20020;-79
2023/01/19 03:18:18;;;;;;;14.07;7.73;;;;;;;-0.04;92.37;100101.13;5059655;28;20020;-78
2023/01/19 03:20:45;;;;;;;13.05;8.43;;;;;;;-0.01;93.04;100105.44;5067645;28;20029;-78
2023/01/19 03:23:14;;;;;;;14.60;8.07;;;;;;;-0.02;92.35;100101.16;5049519;28;20027;-78
2023/01/19 03:25:43;;;;;;;12.57;7.60;;;;;;;0.00;92.82;100112.25;5071927;28;20183;-78
2023/01/19 03:28:12;;;;;;;11.70;7.67;;;;;;;0.02;93.44;100112.25;5071822;28;20020;-78
2023/01/19 03:30:41;;;;;;;11.73;7.40;;;;;;;0.02;93.24;100120.75;5069287;28;20510;-78
2023/01/19 03:33:15;;;;;;;11.83;7.50;;;;;;;0.00;93.78;100119.94;5053117;28;20156;-78
2023/01/19 03:35:47;;;;;;;11.80;7.87;;;;;;;0.02;93.67;100119.91;5069628;28;20381;-78
2023/01/19 03:38:17;;;;;;;11.17;7.53;;;;;;;0.00;93.74;100125.03;5067628;28;20107;-79
2023/01/19 03:40:44;;;;;;;12.17;7.60;;;;;;;-0.02;93.60;100139.50;5069932;28;20036;-78
2023/01/19 03:43:10;;;;;;;9.93;6.83;;;;;;;-0.07;93.44;100131.78;5061456;28;20044;-78
2023/01/19 03:45:37;;;;;;;11.40;7.40;;;;;;;-0.08;93.48;100147.97;5060246;28;20059;-78
2023/01/19 03:48:04;;;;;;;10.17;6.60;;;;;;;-0.11;93.81;100147.09;5063154;28;20410;-78
2023/01/19 03:50:30;;;;;;;9.10;6.37;;;;;;;-0.10;93.89;100148.81;5065810;28;20016;-79
2023/01/19 03:53:15;;;;;;;9.03;6.43;;;;;;;-0.12;93.91;100153.94;5066078;28;20036;-80
2023/01/19 03:55:49;;;;;;;10.10;6.03;;;;;;;-0.11;93.70;100154.78;5071750;28;20052;-80
2023/01/19 03:58:14;;;;;;;10.37;6.97;;;;;;;-0.12;93.88;100163.28;5064080;28;20040;-80
2023/01/19 04:00:40;;;;;;;9.03;6.13;;;;;;;-0.14;93.88;100159.88;5063502;28;20115;-80
2023/01/19 04:03:12;;;;;;;9.57;6.60;;;;;;;-0.12;94.01;100165.84;5065429;28;20498;-79
2023/01/19 04:05:38;;;;;;;10.40;6.83;;;;;;;-0.16;94.06;100159.88;5059553;28;20074;-79
2023/01/19 04:08:04;;;;;;;10.23;7.27;;;;;;;-0.16;94.25;100167.53;5062971;28;20049;-79
2023/01/19 04:10:29;;;;;;;9.70;6.80;;;;;;;-0.18;93.70;100169.22;5062239;28;20151;-79
2023/01/19 04:12:58;;;;;;;10.60;6.70;;;;;;;-0.19;94.38;100178.59;5061188;28;20547;-79
2023/01/19 04:15:24;;;;;;;10.40;7.00;;;;;;;-0.19;94.10;100178.59;5064936;28;20043;-79
2023/01/19 04:17:50;;;;;;;9.07;6.63;;;;;;;-0.21;94.27;100175.19;5064837;28;20063;-79
2023/01/19 04:20:15;;;;;;;8.83;6.40;;;;;;;-0.22;93.92;100170.91;5039923;28;20476;-78
2023/01/19 04:22:41;;;;;;;8.30;6.17;;;;;;;-0.22;94.50;100178.56;5066183;28;20116;-78
2023/01/19 04:25:07;;;;;;;7.00;5.10;;;;;;;-0.22;93.86;100173.47;5063681;28;20039;-79
2023/01/19 04:27:32;;;;;;;6.87;4.63;;;;;;;-0.21;94.42;100175.19;5063696;28;20107;-78
2023/01/19 04:29:59;;;;;;;6.20;4.37;;;;;;;-0.19;94.48;100170.06;5062154;28;20076;-78
2023/01/19 04:32:24;;;;;;;6.60;4.50;;;;;;;-0.19;93.90;100182.84;5044808;28;20107;-78
2023/01/19 04:34:50;;;;;;;5.70;4.30;;;;;;;-0.23;94.42;100186.22;5064001;28;20567;-78
2023/01/19 04:37:16;;;;;;;5.53;3.97;;;;;;;-0.23;93.98;100191.31;5066302;28;20754;-78
2023/01/19 04:39:41;;;;;;;5.07;3.70;;;;;;;-0.23;93.82;100188.78;5063921;28;20062;-78
2023/01/19 04:42:06;;;;;;;4.60;3.20;;;;;;;-0.24;94.38;100193.03;5063941;28;20541;-78
2023/01/19 04:44:32;;;;;;;5.27;3.33;;;;;;;-0.22;94.31;100198.16;5045475;28;20089;-79
2023/01/19 04:46:57;;;;;;;4.53;3.23;;;;;;;-0.22;94.72;100193.91;5063021;28;20039;-78
2023/01/19 04:49:22;;;;;;;4.27;3.00;;;;;;;-0.21;94.43;100187.97;5067430;28;20017;-78
2023/01/19 04:51:48;;;;;;;3.30;2.40;;;;;;;-0.20;94.81;100182.00;5065743;28;20028;-78
2023/01/19 04:54:14;;;;;;;3.87;2.63;;;;;;;-0.21;94.19;100180.28;5066536;28;20036;-78
2023/01/19 04:56:39;;;;;;;3.33;2.57;;;;;;;-0.21;94.24;100162.41;5058771;28;20386;-78
2023/01/19 04:59:05;;;;;;;3.30;2.63;;;;;;;-0.19;94.32;100152.16;5065594;28;20029;-78
2023/01/19 05:01:31;;;;;;;3.13;2.10;;;;;;;-0.19;94.19;100137.72;5061183;28;20013;-78
2023/01/19 05:03:59;;;;;;;3.40;2.30;;;;;;;-0.21;94.33;100131.72;5065162;28;20479;-78
2023/01/19 05:06:24;;;;;;;3.80;2.00;;;;;;;-0.22;94.18;100122.34;5064349;28;20075;-78
2023/01/19 05:08:50;;;;;;;2.50;2.00;;;;;;;-0.25;94.34;100117.19;5067747;28;20499;-79
2023/01/19 05:11:15;;;;;;;2.43;1.80;;;;;;;-0.25;94.13;100122.31;5068254;28;20023;-78
2023/01/19 05:13:41;;;;;;;2.13;1.70;;;;;;;-0.24;94.73;100131.69;5069419;28;20033;-79
2023/01/19 05:16:06;;;;;;;2.00;1.60;;;;;;;-0.24;94.27;100139.38;5068629;28;20464;-78
2023/01/19 05:18:35;;;;;;;2.10;1.53;;;;;;;-0.24;94.39;100141.91;5068445;28;20103;-78
2023/01/19 05:21:02;;;;;;;5.20;1.60;;;;;;;-0.21;94.29;100144.50;5066989;28;20534;-78
2023/01/19 05:23:27;;;;;;;2.60;1.70;;;;;;;-0.21;94.67;100148.75;5064604;28;20048;-78
2023/01/19 05:25:55;;;;;;;2.53;1.80;;;;;;;-0.20;94.76;100145.34;5068243;28;20059;-77
2023/01/19 05:28:20;;;;;;;3.07;2.27;;;;;;;-0.22;94.83;100153.00;5065193;28;20032;-77
2023/01/19 05:30:45;;;;;;;2.87;2.03;;;;;;;-0.24;95.50;100153.81;5046155;28;20380;-78
2023/01/19 05:33:11;;;;;;;3.10;2.10;;;;;;;-0.25;94.89;100147.88;5067270;28;20040;-77
2023/01/19 05:35:36;;;;;;;2.60;2.00;;;;;;;-0.27;94.69;100154.69;5066006;28;20035;-77
2023/01/19 05:38:01;;;;;;;3.07;2.30;;;;;;;-0.31;95.24;100160.59;5061412;28;20029;-77
2023/01/19 05:40:27;;;;;;;3.30;2.20;;;;;;;-0.33;95.08;100167.41;5064490;28;20031;-77
2023/01/19 05:42:52;;;;;;;3.37;2.23;;;;;;;-0.32;95.15;100171.66;5061545;28;20550;-77
2023/01/19 05:45:18;;;;;;;3.77;2.33;;;;;;;-0.32;95.28;100176.78;5062405;28;20032;-77
2023/01/19 05:47:43;;;;;;;3.77;2.70;;;;;;;-0.31;95.01;100181.03;5059366;28;20485;-78
2023/01/19 05:50:09;;;;;;;3.80;2.63;;;;;;;-0.32;95.43;100182.75;5063930;28;20024;-77
2023/01/19 05:52:34;;;;;;;4.27;2.80;;;;;;;-0.31;95.32;100181.03;5062756;28;20037;-78
2023/01/19 05:54:59;;;;;;;4.83;2.63;;;;;;;-0.28;95.14;100183.63;5064766;28;20024;-78
2023/01/19 05:57:24;;;;;;;4.40;2.90;;;;;;;-0.28;95.34;100183.63;5065761;28;20052;-78
2023/01/19 05:59:50;;;;;;;6.70;3.07;;;;;;;-0.27;95.14;100179.38;5063288;28;20041;-78
2023/01/19 06:02:15;;;;;;;7.00;3.03;;;;;;;-0.27;94.83;100193.00;5060951;28;20024;-77
2023/01/19 06:04:40;;;;;;;4.70;3.10;;;;;;;-0.26;95.40;100187.06;5063518;28;20028;-78
2023/01/19 06:07:06;;;;;;;6.07;3.60;;;;;;;-0.25;95.67;100196.44;5069035;28;20035;-78
2023/01/19 06:09:32;;;;;;;6.37;3.80;;;;;;;-0.23;95.33;100193.88;5062474;28;20041;-78
2023/01/19 06:11:58;;;;;;;5.63;3.73;;;;;;;-0.25;95.17;100195.56;5064115;28;20399;-78
2023/01/19 06:14:24;;;;;;;6.57;4.30;;;;;;;-0.23;95.40;100196.44;5063284;28;20036;-77
2023/01/19 06:16:49;;;;;;;7.13;4.27;;;;;;;-0.24;95.75;100193.03;5065370;28;20034;-77
2023/01/19 06:19:14;;;;;;;9.33;4.73;;;;;;;-0.23;95.67;100199.88;5061842;28;20037;-77
2023/01/19 06:21:39;;;;;;;7.20;4.33;;;;;;;-0.21;95.59;100210.97;5047667;28;20059;-78
2023/01/19 06:24:05;;;;;;;8.83;5.20;;;;;;;-0.19;96.05;100206.72;5061733;28;20506;-78
2023/01/19 06:26:30;;;;;;;9.63;4.80;;;;;;;-0.18;95.73;100208.44;5064835;28;20039;-77
2023/01/19 06:28:56;;;;;;;7.63;5.13;;;;;;;-0.17;96.04;100211.84;5064817;28;20664;-78
2023/01/19 06:31:21;;;;;;;7.17;4.97;;;;;;;-0.18;95.52;100211.00;5065690;28;20025;-79
2023/01/19 06:33:46;;;;;;;9.87;5.80;;;;;;;-0.14;95.32;100231.44;5065932;28;20031;-78
2023/01/19 06:36:12;;;;;;;9.40;5.83;;;;;;;-0.16;96.21;100228.91;5061306;28;20799;-78
2023/01/19 06:38:37;;;;;;;9.73;5.80;;;;;;;-0.16;95.82;100234.84;5062114;28;20039;-78
2023/01/19 06:41:03;;;;;;;8.93;6.03;;;;;;;-0.16;95.47;100239.97;5064135;28;20036;-79
2023/01/19 06:43:30;;;;;;;9.73;6.30;;;;;;;-0.17;95.47;100232.28;5068174;28;20040;-78
2023/01/19 06:45:56;;;;;;;10.23;6.63;;;;;;;-0.18;95.49;100235.69;5058949;28;20021;-78
2023/01/19 06:48:22;;;;;;;10.20;7.03;;;;;;;-0.18;95.39;100241.69;5063860;28;20043;-78
2023/01/19 06:50:48;;;;;;;13.50;6.87;;;;;;;-0.21;95.66;100239.09;5066651;28;20024;-78
2023/01/19 06:53:15;;;;;;;11.70;7.10;;;;;;;-0.21;95.65;100243.31;5065660;28;20020;-78
2023/01/19 06:55:44;;;;;;;11.67;7.40;;;;;;;-0.24;96.14;100250.97;5067277;28;21595;-78
2023/01/19 06:58:10;;;;;;;10.97;7.40;;;;;;;-0.28;95.69;100250.09;5065476;28;20078;-78
2023/01/19 07:00:36;;;;;;;11.70;7.83;;;;;;;-0.25;95.63;100268.00;5065761;28;20025;-78
2023/01/19 07:03:02;;;;;;;12.03;7.93;;;;;;;-0.23;95.70;100257.78;5061908;28;20039;-78
2023/01/19 07:05:27;;;;;;;15.07;9.33;;;;;;;-0.24;95.92;100271.41;5063040;28;20032;-78
2023/01/19 07:07:54;;;;;;;14.70;8.93;;;;;;;-0.24;95.67;100272.28;5062509;28;20224;-78
2023/01/19 07:10:20;;;;;;;15.07;10.10;;;;;;;-0.23;95.75;100279.13;5062127;28;20243;-78
2023/01/19 07:12:46;;;;;;;17.10;10.40;;;;;;;-0.22;95.89;100275.72;5065449;28;20032;-79
2023/01/19 07:15:13;;;;;;;16.17;10.60;;;;;;;-0.18;96.00;100285.13;5069167;28;20073;-77
2023/01/19 07:17:40;;;;;;;17.43;11.23;;;;;;;-0.17;96.17;100291.94;5070911;28;20070;-76
2023/01/19 07:20:08;;;;;;;17.30;11.57;;;;;;;-0.16;96.19;100296.22;5069323;28;20089;-77
2023/01/19 07:22:33;;;;;;;19.30;11.77;;;;;;;-0.14;96.13;100293.69;5061369;28;21204;-77
2023/01/19 07:24:58;;;;;;;18.77;12.73;;;;;;;-0.13;96.45;100294.53;5050815;28;20024;-77
2023/01/19 07:27:26;;;;;;;16.80;11.40;;;;;;;-0.13;96.15;100292.84;5071687;28;20028;-76
2023/01/19 07:29:52;;;;;;;17.43;12.10;;;;;;;-0.09;96.63;100298.84;5046735;28;20024;-77
2023/01/19 07:32:17;;;;;;;20.47;12.90;;;;;;;-0.10;97.04;100304.78;5068961;28;20027;-77
2023/01/19 07:34:42;;;;;;;22.57;12.90;;;;;;;-0.11;96.98;100313.31;5067173;28;20499;-77
2023/01/19 07:37:08;;;;;;;18.87;12.50;;;;;;;-0.10;96.54;100307.34;5067115;28;20028;-77
2023/01/19 07:39:35;;;;;;;17.87;12.10;;;;;;;-0.10;96.39;100309.91;5064913;28;20077;-77
2023/01/19 07:42:00;;;;;;;19.77;12.37;;;;;;;-0.11;96.36;100310.75;5049345;28;20020;-77
2023/01/19 07:44:26;;;;;;;16.33;12.40;;;;;;;-0.11;96.15;100313.31;5066717;28;20369;-75
2023/01/19 07:46:51;;;;;;;17.97;12.43;;;;;;;-0.10;96.73;100315.00;5066738;28;20062;-75
2023/01/19 07:49:17;;;;;;;21.17;13.30;;;;;;;-0.10;96.39;100320.13;5069320;28;20038;-75
2023/01/19 07:51:42;;;;;;;18.47;12.53;;;;;;;-0.07;96.83;100327.84;5066739;28;20035;-75
2023/01/19 07:54:07;;;;;;;19.67;13.70;;;;;;;-0.03;96.82;100329.59;5068163;28;20043;-76
2023/01/19 07:56:33;;;;;;;22.73;13.77;;;;;;;-0.01;96.59;100335.56;5071198;28;20105;-76
2023/01/19 07:58:58;;;;;;;22.73;13.40;;;;;;;-0.01;96.69;100344.09;5065414;28;20040;-76
2023/01/19 08:01:23;;;;;;;22.10;13.80;;;;;;;0.01;96.75;100338.13;5070107;28;20107;-77
2023/01/19 08:03:49;;;;;;;22.50;14.00;;;;;;;0.02;96.80;100339.84;5069479;28;20038;-76
2023/01/19 08:06:19;;;;;;;19.60;13.20;;;;;;;0.02;96.97;100345.81;5066972;28;20421;-76
2023/01/19 08:08:45;;;;;;;20.63;13.10;;;;;;;0.02;96.78;100360.31;5069719;28;20048;-77
2023/01/19 08:11:10;;;;;;;20.10;13.13;;;;;;;0.00;97.13;100357.75;5073762;28;20039;-76
2023/01/19 08:13:35;;;;;;;19.77;12.97;;;;;;;0.01;96.41;100359.44;5068977;28;20032;-76
2023/01/19 08:16:01;;;;;;;21.60;13.50;;;;;;;0.01;96.54;100363.72;5070320;28;20036;-77
2023/01/19 08:18:26;;;;;;;19.87;12.97;;;;;;;0.01;96.94;100362.00;5074650;28;20464;-77
2023/01/19 08:20:51;;;;;;;20.40;13.20;;;;;;;0.02;96.96;100371.38;5070815;28;20479;-76
2023/01/19 08:23:17;;;;;;;22.63;13.33;;;;;;;0.01;96.80;100367.09;5070144;28;20144;-77
2023/01/19 08:25:44;;;;;;;21.43;13.93;;;;;;;0.01;97.21;100377.34;5055827;28;20027;-76
2023/01/19 08:28:11;;;;;;;22.60;13.63;;;;;;;0.02;96.62;100380.78;5069652;28;20043;-76
2023/01/19 08:30:37;;;;;;;21.10;13.73;;;;;;;0.04;96.53;100394.44;5069854;28;20320;-77
2023/01/19 08:33:03;;;;;;;23.70;13.83;;;;;;;0.02;97.16;100399.50;5070982;28;20383;-76
2023/01/19 08:35:32;;;;;;;23.30;13.90;;;;;;;0.04;96.91;100405.50;5072987;28;20551;-77
2023/01/19 08:38:00;;;;;;;22.67;13.17;;;;;;;0.06;96.84;100410.66;5064698;28;20029;-77
2023/01/19 08:40:34;;;;;;;23.33;13.17;;;;;;;0.07;96.77;100415.78;5067920;28;20028;-76
2023/01/19 08:43:05;;;;;;;19.57;12.80;;;;;;;0.08;97.00;100427.72;5074236;28;20029;-76
2023/01/19 08:45:30;;;;;;;24.42;13.90;;;;;;;0.12;97.32;100439.72;5069923;28;20033;-77
2023/01/19 08:48:00;;;;;;;21.03;12.97;;;;;;;0.18;96.86;100432.91;5070431;28;20032;-76
2023/01/19 08:50:29;;;;;;;21.77;12.70;;;;;;;0.22;96.92;100450.03;5070989;28;20103;-76
2023/01/19 08:53:00;;;;;;;24.30;13.50;;;;;;;0.28;97.27;100456.06;5069032;28;20741;-76
2023/01/19 08:55:26;;;;;;;22.97;14.03;;;;;;;0.33;97.21;100458.69;5069835;28;20028;-77
2023/01/19 08:57:52;;;;;;;23.17;13.53;;;;;;;0.40;97.23;100454.50;5071122;28;20031;-77
2023/01/19 09:00:19;;;;;;;22.63;14.17;;;;;;;0.42;97.48;100447.69;5064584;28;22015;-77
2023/01/19 09:02:45;;;;;;;22.70;13.80;;;;;;;0.40;97.19;100450.22;5069570;28;20040;-77
2023/01/19 09:05:10;;;;;;;21.97;12.93;;;;;;;0.40;96.89;100455.34;5069043;28;20033;-77
2023/01/19 09:07:36;;;;;;;22.67;12.73;;;;;;;0.39;96.87;100458.72;5072669;28;20047;-77
2023/01/19 09:10:03;;;;;;;22.30;12.20;;;;;;;0.38;97.30;100451.91;5068581;28;20031;-77
2023/01/19 09:12:28;;;;;;;21.80;12.67;;;;;;;0.38;96.61;100451.91;5046232;28;20032;-77
2023/01/19 09:14:53;;;;;;;24.37;13.50;;;;;;;0.38;96.69;100446.78;5066522;28;20028;-77
2023/01/19 09:17:19;;;;;;;25.17;13.60;;;;;;;0.39;97.27;100460.44;5066832;28;20036;-76
2023/01/19 09:19:44;;;;;;;25.87;13.47;;;;;;;0.39;97.15;100456.16;5069326;28;20034;-76
2023/01/19 09:22:09;;;;;;;26.63;13.43;;;;;;;0.39;96.93;100458.72;5068498;28;20020;-77
2023/01/19 09:24:35;;;;;;;30.50;14.80;;;;;;;0.40;97.12;100465.56;5067823;28;20039;-77
2023/01/19 09:27:01;;;;;;;27.67;14.67;;;;;;;0.42;97.08;100469.00;5047889;28;20036;-77
2023/01/19 09:29:26;;;;;;;28.27;13.50;;;;;;;0.44;97.35;100462.19;5065726;28;20039;-77
2023/01/19 09:31:52;;;;;;;32.33;14.60;;;;;;;0.52;97.32;100469.06;5069353;28;20475;-77
2023/01/19 09:34:17;;;;;;;29.10;13.93;;;;;;;0.60;97.00;100467.47;5070007;28;20035;-77
2023/01/19 09:36:42;;;;;;;32.47;15.10;;;;;;;0.68;96.74;100455.59;5065529;28;20032;-76
2023/01/19 09:39:09;;;;;;;28.97;15.70;;;;;;;0.64;96.76;100458.97;5068689;28;21420;-77
2023/01/19 09:41:37;;;;;;;35.63;15.33;;;;;;;0.59;95.99;100460.63;5066943;28;20043;-76
2023/01/19 09:44:03;;;;;;;30.30;14.60;;;;;;;0.54;96.28;100467.41;5066418;28;20709;-83
2023/01/19 09:46:41;;;;;;;32.50;15.77;;;;;;;0.51;96.44;100468.22;5063151;28;20039;-79
2023/01/19 09:49:17;;;;;;;35.87;15.23;;;;;;;0.51;96.42;100477.63;5065127;28;20028;-82
2023/01/19 09:51:45;;;;;;;30.07;14.20;;;;;;;0.51;96.56;100482.75;5062885;28;20056;-78
2023/01/19 09:54:15;;;;;;;31.90;14.90;;;;;;;0.51;96.71;100481.03;5063630;28;20035;-78
2023/01/19 09:56:46;;;;;;;32.80;15.60;;;;;;;0.50;96.15;100486.16;5064327;28;20506;-78
2023/01/19 09:59:27;;;;;;;32.00;15.73;;;;;;;0.52;96.19;100487.00;5067377;28;20032;-77
2023/01/19 10:02:11;;;;;;;32.40;15.25;;;;;;;0.53;96.30;100488.72;5068814;28;20035;-78
2023/01/19 10:04:56;;;;;;;31.53;15.60;;;;;;;0.54;96.34;100490.44;5069426;28;20019;-77
2023/01/19 10:07:44;;;;;;;33.23;15.53;;;;;;;0.57;96.19;100487.91;5066643;28;20032;-77
2023/01/19 10:10:41;;;;;;;28.07;14.63;;;;;;;0.59;96.50;100491.34;5065663;28;20028;-78
2023/01/19 10:13:29;;;;;;;31.53;15.17;;;;;;;0.63;96.11;100495.66;5014081;28;20055;-77
2023/01/19 10:16:01;;;;;;;32.00;14.47;;;;;;;0.64;96.21;100496.50;5068138;28;20032;-78
2023/01/19 10:18:39;;;;;;;31.80;14.93;;;;;;;0.66;96.02;100499.94;5066847;28;20039;-78
2023/01/19 10:21:13;;;;;;;31.00;15.30;;;;;;;0.64;95.91;100492.25;5067245;28;20027;-78
2023/01/19 10:23:59;;;;;;;33.80;15.50;;;;;;;0.63;95.99;100503.34;5069012;28;20060;-77
2023/01/19 10:26:32;;;;;;;29.03;14.63;;;;;;;0.60;95.78;100498.19;5072783;28;20033;-77
2023/01/19 10:29:05;;;;;;;26.17;13.83;;;;;;;0.59;96.07;100502.47;5067242;28;20056;-76
2023/01/19 10:31:33;;;;;;;29.07;13.60;;;;;;;0.60;96.14;100509.25;5066228;28;20376;-76
2023/01/19 10:33:58;;;;;;;30.13;14.57;;;;;;;0.62;95.98;100505.88;5072575;28;20032;-77
2023/01/19 10:36:35;;;;;;;25.90;12.87;;;;;;;0.67;96.32;100511.91;5066994;28;20039;-77
2023/01/19 10:39:03;;;;;;;21.17;11.67;;;;;;;0.71;95.93;100506.81;5062553;28;20357;-76
2023/01/19 10:41:43;;;;;;;24.60;12.53;;;;;;;0.75;96.26;100511.13;5066051;28;20120;-77
2023/01/19 10:44:09;;;;;;;25.40;12.33;;;;;;;0.81;96.12;100512.03;5068060;28;20130;-80
2023/01/19 10:46:47;;;;;;;24.10;12.43;;;;;;;0.88;96.34;100511.22;5067951;28;20099;-76
2023/01/19 10:49:21;;;;;;;22.60;12.07;;;;;;;0.94;96.26;100518.13;5068992;28;20028;-76
2023/01/19 10:51:48;;;;;;;21.57;12.13;;;;;;;0.98;96.19;100509.59;5065007;28;20435;-77
2023/01/19 10:54:14;;;;;;;27.17;13.27;;;;;;;0.99;96.14;100508.75;5069595;28;20383;-77
2023/01/19 10:56:40;;;;;;;24.33;13.10;;;;;;;1.00;95.75;100506.22;5067642;28;20575;-78
2023/01/19 10:59:06;;;;;;;21.83;12.30;;;;;;;1.02;95.88;100513.91;5067710;28;20032;-78
2023/01/19 11:01:35;;;;;;;26.93;12.43;;;;;;;1.05;95.83;100512.22;5070398;28;20104;-77
2023/01/19 11:04:19;;;;;;;23.43;12.67;;;;;;;1.06;96.11;100511.38;5048779;28;20384;-77
2023/01/19 11:06:44;;;;;;;20.57;12.63;;;;;;;1.07;95.65;100507.13;5070218;28;20041;-77
2023/01/19 11:09:20;;;;;;;23.57;12.17;;;;;;;1.10;95.73;100511.41;5068243;28;20221;-76
2023/01/19 11:11:51;;;;;;;22.37;11.93;;;;;;;1.12;95.61;100504.59;5065569;28;20035;-76
2023/01/19 11:14:20;;;;;;;23.02;12.15;;;;;;;1.15;95.85;100512.31;5070508;28;20036;-76
2023/01/19 11:16:48;;;;;;;23.33;11.87;;;;;;;1.16;95.69;100514.03;5067247;28;20029;-76
2023/01/19 11:19:19;;;;;;;23.80;11.33;;;;;;;1.15;95.70;100515.72;5069240;28;20059;-76
2023/01/19 11:21:44;;;;;;;19.90;10.70;;;;;;;1.18;95.79;100513.19;5065029;28;20116;-76
2023/01/19 11:24:13;;;;;;;19.03;10.90;;;;;;;1.22;95.62;100516.63;5069981;28;20111;-77
2023/01/19 11:27:01;;;;;;;22.27;11.10;;;;;;;1.25;95.37;100514.09;5071679;28;20108;-77
2023/01/19 11:29:27;;;;;;;19.40;10.00;;;;;;;1.27;95.32;100512.41;5069535;28;20028;-77
2023/01/19 11:31:53;;;;;;;21.23;10.50;;;;;;;1.30;95.56;100517.56;5063997;28;20403;-76
2023/01/19 11:34:36;;;;;;;18.37;10.53;;;;;;;1.31;95.45;100509.03;5070498;28;20029;-76
2023/01/19 11:37:26;;;;;;;18.67;9.83;;;;;;;1.35;95.45;100508.19;5069581;28;20657;-75
2023/01/19 11:39:55;;;;;;;20.53;10.73;;;;;;;1.40;95.67;100507.34;5066712;28;20086;-76